createdAt,value
2023-05-12T00:03:14.715Z,2.60
2023-05-12T00:06:56.661Z,2.33
2023-05-12T00:10:38.662Z,2.45
2023-05-12T00:14:20.664Z,4.32
2023-05-12T00:18:02.499Z,3.90
2023-05-12T00:21:44.667Z,5.70
2023-05-12T00:25:26.630Z,3.65
2023-05-12T00:29:08.433Z,3.22
2023-05-12T00:32:50.310Z,2.65
2023-05-12T00:36:32.272Z,2.70
2023-05-12T00:40:14.195Z,2.83
2023-05-12T00:43:56.033Z,2.25
2023-05-12T00:47:38.039Z,6.85
2023-05-12T00:51:19.949Z,2.97
2023-05-12T00:55:02.368Z,2.17
2023-05-12T00:58:44.459Z,1.85
2023-05-12T01:02:26.418Z,1.48
2023-05-12T01:06:24.015Z,3.67
2023-05-12T01:10:23.367Z,3.50
2023-05-12T01:14:05.408Z,1.63
2023-05-12T01:18:01.627Z,3.53
2023-05-12T01:21:43.543Z,2.95
2023-05-12T01:25:28.693Z,3.78
2023-05-12T01:29:11.318Z,3.95
2023-05-12T01:32:53.447Z,3.38
2023-05-12T01:36:35.310Z,5.18
2023-05-12T01:40:18.158Z,3.92
2023-05-12T01:44:00.061Z,4.97
2023-05-12T01:47:41.872Z,4.95
2023-05-12T01:51:23.744Z,6.57
2023-05-12T01:55:06.011Z,6.20
2023-05-12T01:58:47.882Z,8.27
2023-05-12T02:02:31.570Z,7.95
2023-05-12T02:06:13.571Z,8.00
2023-05-12T02:09:55.399Z,7.35
2023-05-12T02:13:37.217Z,6.03
2023-05-12T02:17:19.037Z,4.38
2023-05-12T02:21:00.885Z,4.22
2023-05-12T02:24:42.668Z,4.38
2023-05-12T02:28:24.486Z,3.05
2023-05-12T02:32:06.616Z,3.72
2023-05-12T02:35:48.592Z,3.10
2023-05-12T02:39:30.498Z,3.65
2023-05-12T02:43:12.292Z,4.00
2023-05-12T02:46:54.086Z,2.38
2023-05-12T02:50:35.883Z,3.72
2023-05-12T02:54:17.686Z,4.63
2023-05-12T02:57:59.531Z,2.28
2023-05-12T03:01:41.345Z,2.90
2023-05-12T03:05:23.197Z,5.05
2023-05-12T03:09:05.234Z,2.80
2023-05-12T03:12:47.061Z,3.22
2023-05-12T03:16:28.866Z,3.75
2023-05-12T03:20:11.138Z,3.42
2023-05-12T03:23:53.080Z,3.20
2023-05-12T03:27:34.906Z,4.55
2023-05-12T03:31:17.182Z,3.72
2023-05-12T03:34:59.015Z,3.85
2023-05-12T03:38:40.905Z,2.90
2023-05-12T03:42:24.134Z,3.72
2023-05-12T03:46:06.098Z,2.97
2023-05-12T03:49:47.920Z,5.70
2023-05-12T03:53:30.039Z,5.65
2023-05-12T03:57:12.864Z,3.42
2023-05-12T04:00:57.009Z,3.72
2023-05-12T04:04:39.020Z,3.45
2023-05-12T04:08:20.986Z,3.17
2023-05-12T04:12:03.078Z,3.55
2023-05-12T04:15:44.930Z,4.28
2023-05-12T04:19:26.732Z,4.32
2023-05-12T04:23:08.572Z,9.02
2023-05-12T04:26:50.412Z,7.80
2023-05-12T04:30:32.528Z,6.53
2023-05-12T04:34:14.426Z,7.07
2023-05-12T04:37:56.250Z,7.45
2023-05-12T04:41:38.149Z,9.88
2023-05-12T04:45:20.319Z,9.10
2023-05-12T04:49:02.304Z,9.65
2023-05-12T04:52:44.219Z,9.23
2023-05-12T04:56:26.156Z,9.75
2023-05-12T05:00:09.226Z,11.35
2023-05-12T05:03:51.420Z,11.65
2023-05-12T05:07:33.405Z,11.65
2023-05-12T05:11:15.213Z,10.98
2023-05-12T05:14:57.097Z,11.95
2023-05-12T05:18:41.969Z,9.40
2023-05-12T05:22:23.837Z,14.13
2023-05-12T05:26:05.665Z,12.32
2023-05-12T05:29:47.469Z,14.18
2023-05-12T05:33:29.347Z,13.73
2023-05-12T05:37:11.167Z,12.63
2023-05-12T05:40:54.446Z,15.85
2023-05-12T05:44:36.647Z,14.25
2023-05-12T05:48:18.703Z,16.15
2023-05-12T05:52:00.601Z,13.80
2023-05-12T05:55:42.386Z,15.68
2023-05-12T05:59:24.479Z,15.65
2023-05-12T06:03:06.361Z,16.52
2023-05-12T06:06:48.309Z,17.73
2023-05-12T06:10:30.107Z,18.10
2023-05-12T06:14:11.980Z,19.45
2023-05-12T06:17:53.788Z,23.73
2023-05-12T06:21:35.753Z,18.48
2023-05-12T06:25:17.731Z,17.33
2023-05-12T06:28:59.616Z,18.67
2023-05-12T06:32:41.687Z,18.20
2023-05-12T06:36:23.959Z,18.15
2023-05-12T06:40:06.563Z,21.88
2023-05-12T06:43:48.371Z,19.77
2023-05-12T06:47:30.222Z,18.33
2023-05-12T06:51:13.166Z,16.23
2023-05-12T06:54:55.017Z,18.70
2023-05-12T06:58:37.096Z,18.25
2023-05-12T07:02:19.046Z,18.98
2023-05-12T07:06:01.056Z,15.25
2023-05-12T07:09:43.189Z,15.35
2023-05-12T07:13:25.038Z,15.50
2023-05-12T07:17:06.967Z,12.10
2023-05-12T07:20:49.162Z,13.23
2023-05-12T07:24:31.031Z,13.90
2023-05-12T07:28:12.965Z,15.55
2023-05-12T07:31:54.856Z,15.25
2023-05-12T07:35:36.739Z,15.63
2023-05-12T07:39:23.439Z,14.45
2023-05-12T07:43:05.535Z,14.02
2023-05-12T07:46:47.389Z,14.32
2023-05-12T07:50:29.333Z,15.18
2023-05-12T07:54:11.121Z,16.67
2023-05-12T07:57:52.964Z,12.82
2023-05-12T08:01:35.307Z,12.95
2023-05-12T08:05:17.246Z,12.43
2023-05-12T08:08:59.364Z,14.52
2023-05-12T08:12:42.412Z,14.32
2023-05-12T08:16:24.276Z,11.07
2023-05-12T08:20:06.938Z,14.73
2023-05-12T08:23:48.901Z,13.90
2023-05-12T08:27:30.799Z,10.80
2023-05-12T08:31:12.725Z,10.88
2023-05-12T08:34:54.927Z,10.57
2023-05-12T08:38:36.783Z,9.45
2023-05-12T08:42:39.505Z,11.70
2023-05-12T08:46:21.819Z,11.45
2023-05-12T08:50:05.523Z,12.93
2023-05-12T08:53:49.161Z,12.43
2023-05-12T08:57:31.875Z,13.00
2023-05-12T09:01:15.007Z,11.80
2023-05-12T09:04:57.213Z,12.18
2023-05-12T09:08:40.954Z,8.48
2023-05-12T09:12:24.965Z,7.78
2023-05-12T09:16:11.508Z,9.52
2023-05-12T09:19:53.420Z,8.65
2023-05-12T09:23:35.257Z,8.65
2023-05-12T09:27:27.968Z,9.13
2023-05-12T09:31:22.762Z,8.95
2023-05-12T09:35:11.564Z,8.75
2023-05-12T09:39:01.800Z,6.10
2023-05-12T09:42:43.862Z,7.55
2023-05-12T09:46:26.201Z,7.05
2023-05-12T09:50:10.277Z,10.27
2023-05-12T09:53:52.598Z,7.63
2023-05-12T09:57:39.774Z,6.32
2023-05-12T10:01:24.496Z,8.73
2023-05-12T10:05:08.522Z,5.80
2023-05-12T10:08:58.885Z,6.20
2023-05-12T10:12:41.667Z,7.22
2023-05-12T10:16:23.898Z,6.38
2023-05-12T10:20:07.682Z,5.07
2023-05-12T10:23:51.107Z,5.00
2023-05-12T10:27:33.976Z,4.97
2023-05-12T10:31:16.476Z,8.75
2023-05-12T10:35:08.824Z,4.38
2023-05-12T10:38:51.149Z,7.00
2023-05-12T10:42:41.547Z,5.75
2023-05-12T10:46:24.448Z,9.82
2023-05-12T10:50:06.975Z,4.72
2023-05-12T10:53:54.810Z,10.80
2023-05-12T10:57:51.894Z,6.70
2023-05-12T11:01:34.794Z,10.13
2023-05-12T11:05:18.724Z,9.90
2023-05-12T11:09:01.356Z,9.00
2023-05-12T11:12:44.976Z,9.52
2023-05-12T11:16:27.022Z,8.63
2023-05-12T11:20:12.070Z,10.02
2023-05-12T11:23:54.865Z,9.52
2023-05-12T11:27:42.360Z,8.82
2023-05-12T11:31:24.766Z,7.30
2023-05-12T11:35:15.366Z,5.75
2023-05-12T11:38:57.240Z,6.60
2023-05-12T11:42:41.358Z,4.75
2023-05-12T11:46:30.377Z,5.82
2023-05-12T11:50:12.288Z,7.25
2023-05-12T11:53:54.444Z,6.07
2023-05-12T11:57:36.512Z,6.57
2023-05-12T12:01:18.337Z,4.78
2023-05-12T12:05:00.906Z,5.07
2023-05-12T12:09:02.707Z,6.00
2023-05-12T12:12:46.398Z,4.82
2023-05-12T12:16:32.829Z,4.15
2023-05-12T12:20:18.843Z,3.33
2023-05-12T12:24:03.794Z,6.05
2023-05-12T12:27:45.909Z,3.63
2023-05-12T12:31:28.385Z,3.95
2023-05-12T12:35:11.604Z,2.80
2023-05-12T12:38:53.387Z,3.63
2023-05-12T12:42:37.233Z,3.80
2023-05-12T12:46:19.876Z,5.28
2023-05-12T12:50:01.837Z,4.72
2023-05-12T12:53:45.674Z,4.75
2023-05-12T12:57:27.688Z,3.13
2023-05-12T13:01:10.182Z,4.45
2023-05-12T13:04:52.151Z,4.05
2023-05-12T13:08:33.976Z,3.72
2023-05-12T13:12:15.907Z,4.35
2023-05-12T13:15:57.829Z,4.32
2023-05-12T13:19:40.088Z,3.75
2023-05-12T13:23:21.925Z,5.18
2023-05-12T13:27:08.228Z,4.80
2023-05-12T13:30:52.577Z,3.22
2023-05-12T13:34:34.746Z,4.55
2023-05-12T13:38:17.643Z,3.28
2023-05-12T13:42:00.188Z,4.70
2023-05-12T13:45:42.722Z,4.75
2023-05-12T13:49:24.713Z,5.22
2023-05-12T13:53:06.722Z,4.07
2023-05-12T13:56:48.721Z,3.25
2023-05-12T14:00:30.698Z,3.30
2023-05-12T14:04:12.880Z,4.25
2023-05-12T14:07:54.753Z,4.95
2023-05-12T14:11:37.067Z,4.35
2023-05-12T14:15:32.377Z,3.72
2023-05-12T14:19:18.395Z,5.90
2023-05-12T14:23:00.619Z,3.85
2023-05-12T14:26:42.526Z,3.25
2023-05-12T14:30:24.552Z,3.08
2023-05-12T14:34:06.506Z,6.85
2023-05-12T14:37:48.405Z,4.38
2023-05-12T14:41:30.245Z,5.30
2023-05-12T14:45:12.395Z,3.55
2023-05-12T14:48:54.568Z,3.97
2023-05-12T14:52:38.560Z,6.22
2023-05-12T14:56:20.667Z,5.80
2023-05-12T15:00:02.526Z,4.53
2023-05-12T15:03:44.656Z,4.05
2023-05-12T15:07:26.679Z,2.08
2023-05-12T15:11:08.579Z,3.78
2023-05-12T15:14:51.125Z,3.28
2023-05-12T15:18:33.014Z,3.03
2023-05-12T15:22:14.959Z,4.43
2023-05-12T15:25:58.112Z,5.55
2023-05-12T15:29:42.180Z,2.80
2023-05-12T15:33:25.010Z,2.70
2023-05-12T15:37:07.176Z,4.25
2023-05-12T15:40:49.313Z,3.63
2023-05-12T15:44:31.842Z,2.78
2023-05-12T15:48:13.679Z,4.95
2023-05-12T15:51:55.601Z,3.78
2023-05-12T15:55:37.540Z,6.25
2023-05-12T15:59:19.955Z,3.83
2023-05-12T16:03:02.106Z,3.40
2023-05-12T16:06:44.115Z,4.03
2023-05-12T16:10:26.095Z,3.60
2023-05-12T16:14:07.972Z,4.93
2023-05-12T16:17:49.805Z,3.40
2023-05-12T16:21:32.085Z,2.10
2023-05-12T16:25:14.457Z,6.93
2023-05-12T16:28:56.460Z,3.78
2023-05-12T16:32:38.368Z,6.38
2023-05-12T16:36:20.700Z,3.80
2023-05-12T16:40:02.568Z,3.90
2023-05-12T16:43:44.469Z,3.55
2023-05-12T16:47:26.598Z,3.38
2023-05-12T16:51:10.316Z,3.40
2023-05-12T16:54:53.205Z,5.47
2023-05-12T16:58:35.704Z,2.78
2023-05-12T17:02:17.876Z,5.85
2023-05-12T17:05:59.946Z,5.80
2023-05-12T17:09:41.893Z,6.25
2023-05-12T17:13:23.919Z,3.75
2023-05-12T17:17:06.091Z,5.78
2023-05-12T17:20:48.190Z,4.72
2023-05-12T17:24:30.502Z,3.83
2023-05-12T17:28:12.617Z,5.43
2023-05-12T17:31:55.023Z,4.28
2023-05-12T17:35:36.981Z,4.60
2023-05-12T17:39:19.149Z,4.93
2023-05-12T17:43:01.213Z,6.50
2023-05-12T17:46:43.512Z,6.88
2023-05-12T17:50:25.469Z,4.88
2023-05-12T17:54:08.052Z,5.03
2023-05-12T17:57:50.361Z,4.05
2023-05-12T18:01:32.549Z,3.65
2023-05-12T18:05:14.501Z,5.55
2023-05-12T18:08:56.710Z,4.55
2023-05-12T18:12:39.004Z,5.03
2023-05-12T18:16:28.412Z,6.10
2023-05-12T18:20:11.626Z,4.68
2023-05-12T18:23:53.523Z,5.05
2023-05-12T18:27:35.760Z,6.32
2023-05-12T18:31:20.038Z,4.70
2023-05-12T18:35:02.227Z,5.75
2023-05-12T18:38:44.301Z,4.50
2023-05-12T18:42:26.458Z,3.45
2023-05-12T18:46:08.388Z,4.70
2023-05-12T18:49:50.392Z,5.85
2023-05-12T18:53:32.979Z,4.80
2023-05-12T18:57:15.424Z,4.82
2023-05-12T19:00:58.087Z,4.25
2023-05-12T19:04:40.675Z,5.78
2023-05-12T19:08:22.916Z,8.27
2023-05-12T19:12:06.331Z,4.47
2023-05-12T19:15:48.952Z,7.00
2023-05-12T19:19:31.336Z,4.90
2023-05-12T19:23:13.641Z,4.10
2023-05-12T19:26:55.895Z,4.03
2023-05-12T19:30:37.960Z,5.63
2023-05-12T19:34:20.164Z,6.13
2023-05-12T19:38:02.024Z,8.07
2023-05-12T19:41:43.948Z,4.72
2023-05-12T19:45:25.916Z,7.82
2023-05-12T19:49:07.832Z,5.82
2023-05-12T19:52:51.253Z,6.32
2023-05-12T19:56:33.829Z,5.25
2023-05-12T20:00:16.022Z,6.03
2023-05-12T20:03:57.950Z,5.03
2023-05-12T20:07:40.267Z,6.10
2023-05-12T20:11:22.349Z,6.03
2023-05-12T20:15:04.655Z,6.88
2023-05-12T20:18:46.591Z,6.30
2023-05-12T20:22:28.512Z,5.20
2023-05-12T20:26:10.662Z,6.55
2023-05-12T20:29:52.894Z,7.20
2023-05-12T20:33:34.807Z,7.80
2023-05-12T20:37:17.378Z,6.38
2023-05-12T20:41:07.301Z,7.45
2023-05-12T20:44:49.530Z,6.45
2023-05-12T20:48:32.633Z,5.63
2023-05-12T20:52:14.660Z,7.28
2023-05-12T20:55:57.273Z,6.25
2023-05-12T20:59:42.477Z,7.85
2023-05-12T21:03:24.629Z,7.32
2023-05-12T21:07:06.840Z,10.27
2023-05-12T21:10:49.023Z,10.13
2023-05-12T21:14:30.899Z,10.52
2023-05-12T21:18:13.382Z,12.13
2023-05-12T21:21:55.347Z,11.43
2023-05-12T21:25:37.432Z,11.35
2023-05-12T21:29:19.366Z,10.80
2023-05-12T21:33:01.250Z,10.02
2023-05-12T21:36:43.168Z,11.15
2023-05-12T21:40:25.030Z,10.18
2023-05-12T21:44:08.185Z,10.18
2023-05-12T21:47:51.475Z,10.52
2023-05-12T21:51:33.489Z,11.05
2023-05-12T21:55:16.003Z,10.05
2023-05-12T21:58:57.807Z,10.55
2023-05-12T22:02:39.690Z,10.57
2023-05-12T22:06:21.528Z,14.25
2023-05-12T22:10:04.712Z,10.93
2023-05-12T22:13:46.542Z,10.82
2023-05-12T22:17:28.374Z,11.32
2023-05-12T22:21:10.855Z,10.82
2023-05-12T22:24:52.693Z,9.73
2023-05-12T22:28:34.594Z,10.18
2023-05-12T22:32:16.438Z,12.50
2023-05-12T22:36:00.030Z,11.20
2023-05-12T22:39:41.900Z,12.95
2023-05-12T22:43:23.779Z,14.45
2023-05-12T22:47:06.733Z,13.82
2023-05-12T22:50:48.625Z,11.48
2023-05-12T22:54:30.476Z,10.18
2023-05-12T22:58:12.356Z,11.95
2023-05-12T23:01:54.129Z,10.85
2023-05-12T23:05:36.011Z,12.52
2023-05-12T23:09:17.804Z,13.27
2023-05-12T23:12:59.780Z,10.20
2023-05-12T23:16:41.650Z,10.77
2023-05-12T23:20:23.697Z,11.23
2023-05-12T23:24:06.327Z,10.23
2023-05-12T23:27:48.133Z,14.32
2023-05-12T23:31:30.427Z,13.35
2023-05-12T23:35:12.298Z,12.98
2023-05-12T23:38:54.647Z,15.07
2023-05-12T23:42:36.491Z,15.50
2023-05-12T23:46:18.388Z,11.77
2023-05-12T23:50:00.301Z,12.70
2023-05-12T23:53:42.154Z,12.43
2023-05-12T23:57:24.182Z,12.30
